KTRI/TRI METAR and TAF weather

Enter ICAO airport designator
Station Type Date Time Source
KTRI METAR 2021/03/01 22:53 UTC NOAA

KTRI 012253Z 30007KT 10SM BKN170 OVC190 08/M06 A3015 RMK AO2 SLP197 T00831056


Station Type Date Time Source
KTRI Decoded METAR 2021/03/01 22:53 UTC NOAA

TRI-CITY REGIONAL AIRPORT, TN, United States (KTRI) 36-28N 082-24W 474M
Mar 01, 2021 - 05:53 PM EST / 2021.03.01 2253 UTC
Wind: from the WNW (300 degrees) at 8 MPH (7 KT):0
Visibility: 10 mile(s):0
Sky conditions: overcast
Temperature: 46.9 F (8.3 C)
Dew Point: 21.9 F (-5.6 C)
Relative Humidity: 36%
Pressure (altimeter): 30.15 in. Hg (1020 hPa)
ob: KTRI 012253Z 30007KT 10SM BKN170 OVC190 08/M06 A3015 RMK AO2 SLP197 T00831056
cycle: 23

Station Type Date Time Source
KTRI TAF 2021/03/01 18:28 UTC NOAA

TAF KTRI 011726Z 0118/0218 29011G20KT P6SM BKN035
TEMPO 0118/0120 BKN025
FM012100 26011G20KT P6SM BKN150
FM020100 29007KT P6SM BKN250
FM021100 VRB03KT P6SM SCT250

Example: see airport list